Time;durP1;ratioP1;P1;durP2;ratioP2;P2;SDS_P1;SDS_P2;PMS_P1;PMS_P2;Temp;Humidity;BMP_temperature;BMP_pressure;BME280_temperature;BME280_humidity;BME280_pressure;Samples;Min_cycle;Max_cycle;Signal;HPM_P1;HPM_P2
2021/12/30 00:01:33;;;;;;;4.53;1.45;;;12.60;99.90;;;;;;5101557;28;20201;-84
2021/12/30 00:04:00;;;;;;;1.10;1.10;;;12.60;99.90;;;;;;5101972;28;20282;-84
2021/12/30 00:06:29;;;;;;;2.75;1.30;;;12.60;99.90;;;;;;5102443;28;20378;-84
2021/12/30 00:08:56;;;;;;;1.33;1.23;;;12.60;99.90;;;;;;5103524;28;20210;-84
2021/12/30 00:11:24;;;;;;;1.85;1.10;;;12.60;99.90;;;;;;5105613;28;20205;-84
2021/12/30 00:13:53;;;;;;;1.30;1.20;;;12.60;99.90;;;;;;5102112;28;20290;-83
2021/12/30 00:16:20;;;;;;;2.13;1.90;;;12.60;99.90;;;;;;5098076;28;20211;-85
2021/12/30 00:18:49;;;;;;;1.20;1.20;;;12.60;99.90;;;;;;5096714;28;20528;-83
2021/12/30 00:21:16;;;;;;;1.05;1.05;;;12.60;99.90;;;;;;5098229;28;20296;-85
2021/12/30 00:23:44;;;;;;;2.08;1.00;;;12.60;99.90;;;;;;5101632;28;20298;-85
2021/12/30 00:26:11;;;;;;;1.30;1.20;;;12.70;99.90;;;;;;5105250;28;20209;-83
2021/12/30 00:28:38;;;;;;;1.10;1.00;;;12.60;99.90;;;;;;5111028;28;20229;-85
2021/12/30 00:31:07;;;;;;;1.02;0.93;;;12.70;99.90;;;;;;5100891;28;20217;-84
2021/12/30 00:33:34;;;;;;;1.42;1.17;;;12.60;99.90;;;;;;5100918;28;20221;-84
2021/12/30 00:36:03;;;;;;;4.47;1.40;;;12.70;99.90;;;;;;5100526;28;20212;-84
2021/12/30 00:38:30;;;;;;;2.00;1.25;;;12.70;99.90;;;;;;5100817;28;20232;-84
2021/12/30 00:40:56;;;;;;;1.20;1.13;;;12.60;99.90;;;;;;5100904;28;20207;-84
2021/12/30 00:43:23;;;;;;;2.40;1.30;;;12.70;99.90;;;;;;5102607;28;20312;-84
2021/12/30 00:45:51;;;;;;;2.78;1.15;;;12.70;99.90;;;;;;5110962;28;20205;-84
2021/12/30 00:48:19;;;;;;;2.35;1.25;;;12.70;99.90;;;;;;5106965;28;20213;-84
2021/12/30 00:50:48;;;;;;;1.40;1.25;;;12.70;99.90;;;;;;5108111;28;20282;-83
2021/12/30 00:53:15;;;;;;;1.17;1.08;;;12.70;99.90;;;;;;5109220;28;20265;-83
2021/12/30 00:55:43;;;;;;;1.08;1.02;;;12.70;99.90;;;;;;5108250;28;20577;-85
2021/12/30 00:58:10;;;;;;;2.80;1.20;;;12.70;99.90;;;;;;5102206;28;20221;-82
2021/12/30 01:00:40;;;;;;;3.22;2.20;;;12.60;99.90;;;;;;5117696;28;20247;-85
2021/12/30 01:03:07;;;;;;;1.95;1.10;;;12.60;99.90;;;;;;5118072;28;20223;-85
2021/12/30 01:05:37;;;;;;;3.38;1.02;;;12.60;99.90;;;;;;5118355;28;20258;-86
2021/12/30 01:08:06;;;;;;;2.05;1.20;;;12.60;99.90;;;;;;5118361;28;20189;-86
2021/12/30 01:10:33;;;;;;;0.90;0.90;;;12.60;99.90;;;;;;5116777;28;20193;-86
2021/12/30 01:13:05;;;;;;;1.65;1.20;;;12.60;99.90;;;;;;5110270;28;20263;-84
2021/12/30 01:15:45;;;;;;;1.42;1.05;;;12.70;99.90;;;;;;5114248;28;20181;-85
2021/12/30 01:18:26;;;;;;;0.93;0.93;;;12.70;99.90;;;;;;5118210;28;20587;-85
2021/12/30 01:20:55;;;;;;;1.05;1.02;;;12.70;99.90;;;;;;5118413;28;20235;-87
2021/12/30 01:23:22;;;;;;;1.50;0.95;;;12.70;99.90;;;;;;5118349;28;20228;-85
2021/12/30 01:25:49;;;;;;;0.90;0.90;;;12.70;99.90;;;;;;5104698;28;20213;-83
2021/12/30 01:28:16;;;;;;;3.30;0.93;;;12.70;99.90;;;;;;5111846;28;20269;-86
2021/12/30 01:30:44;;;;;;;1.80;1.13;;;12.70;99.90;;;;;;5109643;28;20410;-84
2021/12/30 01:33:11;;;;;;;1.33;1.00;;;12.70;99.90;;;;;;5108768;28;20701;-84
2021/12/30 01:35:37;;;;;;;1.40;0.90;;;12.80;99.90;;;;;;5113344;28;20252;-85
2021/12/30 01:38:11;;;;;;;0.70;0.70;;;12.80;99.90;;;;;;5112431;28;20209;-86
2021/12/30 01:40:39;;;;;;;2.45;1.15;;;12.80;99.90;;;;;;5105685;28;20237;-85
2021/12/30 01:43:07;;;;;;;1.85;1.05;;;12.80;99.90;;;;;;5105333;28;20229;-85
2021/12/30 01:45:34;;;;;;;3.58;1.23;;;12.90;99.90;;;;;;5103248;28;20201;-86
2021/12/30 01:48:01;;;;;;;2.22;1.27;;;12.90;99.90;;;;;;5098896;28;20674;-84
2021/12/30 01:50:28;;;;;;;0.95;0.95;;;13.00;99.90;;;;;;5099904;28;20671;-84
2021/12/30 01:52:55;;;;;;;1.20;1.10;;;13.00;99.90;;;;;;5109539;28;20213;-85
2021/12/30 01:55:24;;;;;;;1.45;0.93;;;13.00;99.90;;;;;;5108167;28;20315;-85
2021/12/30 01:57:51;;;;;;;0.70;0.70;;;13.20;99.90;;;;;;5102207;28;20233;-85
2021/12/30 02:00:24;;;;;;;2.40;1.05;;;13.20;99.90;;;;;;5103227;28;20229;-85
2021/12/30 02:02:51;;;;;;;2.53;1.10;;;13.20;99.90;;;;;;5099879;28;20229;-85
2021/12/30 02:05:18;;;;;;;2.45;1.00;;;13.20;99.90;;;;;;5104519;28;20201;-84
2021/12/30 02:07:45;;;;;;;1.77;1.40;;;13.20;99.90;;;;;;5103582;28;20674;-85
2021/12/30 02:10:14;;;;;;;0.98;0.98;;;13.20;99.90;;;;;;5099957;28;20251;-84
2021/12/30 02:12:46;;;;;;;1.90;1.30;;;13.20;99.90;;;;;;5098654;28;20746;-85
2021/12/30 02:15:16;;;;;;;1.45;1.13;;;13.20;99.90;;;;;;5097614;28;20227;-85
2021/12/30 02:17:44;;;;;;;1.20;1.08;;;13.20;99.90;;;;;;5098070;28;20242;-84
2021/12/30 02:20:34;;;;;;;1.05;1.00;;;13.20;99.90;;;;;;5096934;28;20225;-84
2021/12/30 02:23:01;;;;;;;2.20;1.20;;;13.20;99.90;;;;;;5096409;28;20593;-85
2021/12/30 02:25:28;;;;;;;1.80;1.20;;;13.30;99.90;;;;;;5097798;28;20273;-85
2021/12/30 02:27:55;;;;;;;1.70;0.70;;;13.20;99.90;;;;;;5098633;28;20239;-84
2021/12/30 02:30:22;;;;;;;1.85;1.10;;;13.30;99.90;;;;;;5104830;28;20200;-84
2021/12/30 02:32:49;;;;;;;1.48;1.02;;;13.20;99.90;;;;;;5108912;28;20694;-84
2021/12/30 02:35:17;;;;;;;1.27;0.80;;;13.30;99.90;;;;;;5098065;28;20213;-85
2021/12/30 02:37:44;;;;;;;1.60;1.35;;;13.20;99.90;;;;;;5097512;28;20207;-85
2021/12/30 02:40:12;;;;;;;2.28;1.00;;;13.20;99.90;;;;;;5097593;28;20605;-84
2021/12/30 02:42:39;;;;;;;1.33;0.88;;;13.20;99.90;;;;;;5096941;28;20228;-85
2021/12/30 02:45:07;;;;;;;1.52;1.02;;;13.20;99.90;;;;;;5096992;28;20216;-84
2021/12/30 02:47:34;;;;;;;1.25;0.93;;;13.20;99.90;;;;;;5097150;28;20562;-84
2021/12/30 02:50:01;;;;;;;1.85;1.40;;;13.20;99.90;;;;;;5097497;28;20228;-84
2021/12/30 02:52:30;;;;;;;1.95;1.10;;;13.20;99.90;;;;;;5097132;28;20205;-85
2021/12/30 02:54:57;;;;;;;1.58;0.90;;;13.20;99.90;;;;;;5107045;28;20265;-86
2021/12/30 02:57:26;;;;;;;1.10;1.00;;;13.20;99.90;;;;;;5116186;28;20249;-86
2021/12/30 02:59:54;;;;;;;2.10;1.10;;;13.20;99.90;;;;;;5115765;28;20247;-87
2021/12/30 03:02:20;;;;;;;1.08;1.00;;;13.30;99.90;;;;;;5114913;28;20200;-84
2021/12/30 03:04:48;;;;;;;2.70;1.02;;;13.20;99.90;;;;;;5105993;28;20272;-85
2021/12/30 03:07:18;;;;;;;1.58;1.20;;;13.20;99.90;;;;;;5111416;28;20209;-85
2021/12/30 03:09:47;;;;;;;1.00;1.00;;;13.20;99.90;;;;;;5102142;28;20254;-86
2021/12/30 03:12:15;;;;;;;2.60;1.40;;;13.20;99.90;;;;;;5100423;28;20217;-86
2021/12/30 03:14:46;;;;;;;1.58;1.00;;;13.20;99.90;;;;;;5099690;28;20205;-85
2021/12/30 03:17:14;;;;;;;1.67;1.58;;;13.20;99.90;;;;;;5102430;28;20279;-85
2021/12/30 03:19:41;;;;;;;0.82;0.82;;;13.30;99.90;;;;;;5098891;28;20237;-85
2021/12/30 03:22:09;;;;;;;2.35;1.10;;;13.30;99.90;;;;;;5100604;28;20208;-85
2021/12/30 03:24:36;;;;;;;1.20;0.80;;;13.30;99.90;;;;;;5100100;28;20229;-84
2021/12/30 03:27:06;;;;;;;1.35;0.98;;;13.30;99.90;;;;;;5100444;28;20227;-85
2021/12/30 03:29:33;;;;;;;1.35;1.00;;;13.30;99.90;;;;;;5110759;28;20215;-86
2021/12/30 03:32:00;;;;;;;2.88;1.20;;;13.30;99.90;;;;;;5111822;28;20201;-85
2021/12/30 03:34:27;;;;;;;3.10;1.20;;;13.30;99.90;;;;;;5108366;28;20259;-86
2021/12/30 03:36:54;;;;;;;1.10;1.00;;;13.30;99.90;;;;;;5113944;28;20227;-86
2021/12/30 03:39:21;;;;;;;1.02;1.00;;;13.20;99.90;;;;;;5115318;28;20208;-85
2021/12/30 03:41:48;;;;;;;1.35;0.90;;;13.30;99.90;;;;;;5115872;28;20201;-86
2021/12/30 03:44:19;;;;;;;1.38;1.27;;;13.20;99.90;;;;;;5114998;28;20225;-87
2021/12/30 03:46:46;;;;;;;3.15;1.08;;;13.20;99.90;;;;;;5106620;28;20213;-85
2021/12/30 03:49:13;;;;;;;3.70;0.88;;;13.20;99.90;;;;;;5111455;28;20189;-83
2021/12/30 03:51:40;;;;;;;1.10;1.10;;;13.20;99.90;;;;;;5114098;28;20189;-83
2021/12/30 03:54:08;;;;;;;1.10;1.10;;;13.20;99.90;;;;;;5115472;28;20285;-84
2021/12/30 03:56:36;;;;;;;2.78;1.40;;;13.20;99.90;;;;;;5116813;28;20185;-83
2021/12/30 03:59:04;;;;;;;1.60;1.30;;;13.20;99.90;;;;;;5119312;28;20224;-82
2021/12/30 04:01:33;;;;;;;1.73;1.25;;;13.20;99.90;;;;;;5118709;28;20289;-84
2021/12/30 04:04:00;;;;;;;1.40;1.00;;;13.20;99.90;;;;;;5119333;28;20272;-83
2021/12/30 04:06:28;;;;;;;2.25;0.90;;;13.20;99.90;;;;;;5117579;28;20185;-85
2021/12/30 04:08:55;;;;;;;0.98;0.98;;;13.20;99.90;;;;;;5117468;28;20201;-83
2021/12/30 04:11:25;;;;;;;1.55;0.98;;;13.20;99.90;;;;;;5119189;28;20193;-83
2021/12/30 04:13:52;;;;;;;1.13;1.02;;;13.20;99.90;;;;;;5119539;28;20249;-85
2021/12/30 04:16:20;;;;;;;1.55;0.93;;;13.30;99.90;;;;;;5118908;28;20318;-84
2021/12/30 04:18:49;;;;;;;2.15;1.20;;;13.20;99.90;;;;;;5118483;28;20216;-83
2021/12/30 04:21:18;;;;;;;1.60;0.80;;;13.20;99.90;;;;;;5114418;28;20609;-84
2021/12/30 04:23:45;;;;;;;1.00;0.90;;;13.30;99.90;;;;;;5101909;28;20304;-85
2021/12/30 04:26:12;;;;;;;1.63;0.90;;;13.30;99.90;;;;;;5106026;28;20202;-85
2021/12/30 04:28:40;;;;;;;0.80;0.80;;;13.30;99.90;;;;;;5105353;28;20209;-85
2021/12/30 04:31:07;;;;;;;0.80;0.80;;;13.30;99.90;;;;;;5108100;28;20269;-86
2021/12/30 04:33:34;;;;;;;2.55;0.65;;;13.30;99.90;;;;;;5116956;28;20284;-86
2021/12/30 04:36:02;;;;;;;0.90;0.90;;;13.30;99.90;;;;;;5118764;28;20212;-85
2021/12/30 04:38:31;;;;;;;3.00;0.63;;;13.30;99.90;;;;;;5118740;28;20204;-84
2021/12/30 04:40:59;;;;;;;0.50;0.50;;;13.30;99.90;;;;;;5118070;28;20216;-84
2021/12/30 04:43:26;;;;;;;0.93;0.93;;;13.30;99.90;;;;;;5113965;28;20225;-84
2021/12/30 04:45:54;;;;;;;1.08;0.93;;;13.30;99.90;;;;;;5110723;28;20240;-83
2021/12/30 04:48:23;;;;;;;0.73;0.63;;;13.30;99.90;;;;;;5116307;28;20223;-87
2021/12/30 04:50:50;;;;;;;2.05;0.80;;;13.30;99.90;;;;;;5117533;28;20201;-85
2021/12/30 04:53:19;;;;;;;0.93;0.70;;;13.30;99.90;;;;;;5110690;28;20217;-84
2021/12/30 04:55:48;;;;;;;1.30;0.70;;;13.30;99.90;;;;;;5111917;28;20206;-84
2021/12/30 04:58:15;;;;;;;3.33;0.70;;;13.30;99.90;;;;;;5117256;28;20208;-85
2021/12/30 05:00:42;;;;;;;0.80;0.60;;;13.30;99.90;;;;;;5118229;28;20217;-85
2021/12/30 05:03:11;;;;;;;1.42;0.60;;;13.30;99.90;;;;;;5113850;28;20232;-84
2021/12/30 05:05:40;;;;;;;1.83;1.10;;;13.30;99.90;;;;;;5109227;28;20200;-87
2021/12/30 05:08:08;;;;;;;0.50;0.50;;;13.40;99.90;;;;;;5105370;28;20209;-83
2021/12/30 05:10:37;;;;;;;1.15;0.68;;;13.40;99.90;;;;;;5112190;28;20219;-85
2021/12/30 05:13:06;;;;;;;0.65;0.65;;;13.30;99.90;;;;;;5104297;28;20312;-85
2021/12/30 05:15:34;;;;;;;1.58;0.75;;;13.30;99.90;;;;;;5102172;28;20220;-87
2021/12/30 05:18:01;;;;;;;1.00;0.90;;;13.40;99.90;;;;;;5100891;28;20202;-86
2021/12/30 05:20:28;;;;;;;1.67;0.60;;;13.40;99.90;;;;;;5106917;28;20247;-84
2021/12/30 05:22:55;;;;;;;0.88;0.70;;;13.40;99.90;;;;;;5106284;28;20252;-84
2021/12/30 05:25:23;;;;;;;1.00;0.50;;;13.40;99.90;;;;;;5100812;28;20201;-83
2021/12/30 05:27:51;;;;;;;0.52;0.52;;;13.50;99.90;;;;;;5099967;28;20201;-83
2021/12/30 05:30:21;;;;;;;0.35;0.35;;;13.50;99.90;;;;;;5104673;28;20291;-84
2021/12/30 05:32:49;;;;;;;0.50;0.50;;;13.50;99.90;;;;;;5106271;28;20252;-84
2021/12/30 05:35:17;;;;;;;0.50;0.43;;;13.50;99.90;;;;;;5111713;28;20213;-84
2021/12/30 05:37:44;;;;;;;0.65;0.40;;;13.50;99.90;;;;;;5113371;28;20193;-85
2021/12/30 05:40:15;;;;;;;0.60;0.50;;;13.50;99.90;;;;;;5114109;28;20304;-85
2021/12/30 05:42:44;;;;;;;1.90;0.57;;;13.60;99.90;;;;;;5117518;28;20232;-85
2021/12/30 05:45:15;;;;;;;0.95;0.65;;;13.70;99.90;;;;;;5117885;28;20447;-85
2021/12/30 05:47:42;;;;;;;0.40;0.40;;;13.70;99.90;;;;;;5117571;28;20205;-85
2021/12/30 05:50:11;;;;;;;0.43;0.43;;;13.80;99.90;;;;;;5116856;28;20193;-84
2021/12/30 05:52:38;;;;;;;0.50;0.50;;;13.80;99.90;;;;;;5115815;28;20229;-83
2021/12/30 05:55:05;;;;;;;0.45;0.45;;;13.80;99.90;;;;;;5115021;28;20216;-84
2021/12/30 05:57:32;;;;;;;1.80;0.40;;;13.90;99.90;;;;;;5116780;28;20209;-86
2021/12/30 06:00:00;;;;;;;0.40;0.40;;;13.90;99.90;;;;;;5116310;28;20582;-83
2021/12/30 06:02:29;;;;;;;0.70;0.70;;;13.90;99.90;;;;;;5116527;28;20765;-85
2021/12/30 06:04:56;;;;;;;1.67;0.40;;;13.90;99.90;;;;;;5117241;28;20185;-83
2021/12/30 06:07:23;;;;;;;0.55;0.50;;;13.90;99.90;;;;;;5100558;28;20212;-83
2021/12/30 06:09:50;;;;;;;2.35;0.40;;;14.00;99.90;;;;;;5100984;28;20228;-85
2021/12/30 06:12:16;;;;;;;0.75;0.40;;;14.00;99.90;;;;;;5107651;28;20250;-84
2021/12/30 06:14:43;;;;;;;0.40;0.40;;;14.00;99.90;;;;;;5108675;28;20288;-83
2021/12/30 06:17:14;;;;;;;0.60;0.60;;;14.00;99.90;;;;;;5101905;28;20231;-84
2021/12/30 06:19:42;;;;;;;1.17;0.50;;;14.00;99.90;;;;;;5098535;28;20205;-83
2021/12/30 06:22:10;;;;;;;0.40;0.40;;;14.00;99.90;;;;;;5099631;28;20529;-83
2021/12/30 06:24:37;;;;;;;0.50;0.50;;;14.00;99.90;;;;;;5100217;28;20252;-84
2021/12/30 06:27:05;;;;;;;0.70;0.50;;;14.00;99.90;;;;;;5099647;28;20502;-84
2021/12/30 06:29:31;;;;;;;0.35;0.35;;;14.00;99.90;;;;;;5101191;28;20285;-82
2021/12/30 06:31:58;;;;;;;0.40;0.40;;;14.00;99.90;;;;;;5107264;28;20201;-84
2021/12/30 06:34:25;;;;;;;1.10;0.40;;;14.00;99.90;;;;;;5102162;28;20713;-83
2021/12/30 06:36:54;;;;;;;0.68;0.43;;;14.00;99.90;;;;;;5101361;28;20304;-83
2021/12/30 06:39:21;;;;;;;0.90;0.50;;;14.00;99.90;;;;;;5110178;28;20205;-84
2021/12/30 06:41:48;;;;;;;0.50;0.50;;;14.00;99.90;;;;;;5105330;28;20220;-84
2021/12/30 06:44:15;;;;;;;0.73;0.30;;;14.00;99.90;;;;;;5099155;28;20229;-84
2021/12/30 06:46:48;;;;;;;0.40;0.40;;;14.00;99.90;;;;;;5102087;28;20236;-84
2021/12/30 06:49:15;;;;;;;0.70;0.40;;;14.00;99.90;;;;;;5109174;28;20461;-83
2021/12/30 06:51:41;;;;;;;0.50;0.50;;;14.00;99.90;;;;;;5102405;28;20418;-83
2021/12/30 06:54:10;;;;;;;0.80;0.53;;;14.00;99.90;;;;;;5101804;28;20554;-84
2021/12/30 06:56:37;;;;;;;0.77;0.40;;;14.00;99.90;;;;;;5097958;28;20508;-83
2021/12/30 06:59:05;;;;;;;0.77;0.50;;;14.00;99.90;;;;;;5098433;28;20470;-83
2021/12/30 07:01:32;;;;;;;1.25;0.80;;;14.00;99.90;;;;;;5099281;28;20983;-84
2021/12/30 07:03:59;;;;;;;1.27;0.60;;;14.00;99.90;;;;;;5099233;28;20272;-84
2021/12/30 07:06:26;;;;;;;0.30;0.30;;;14.00;99.90;;;;;;5099710;28;20443;-84
2021/12/30 07:08:53;;;;;;;0.93;0.50;;;14.00;99.90;;;;;;5099768;28;20213;-85
2021/12/30 07:11:22;;;;;;;1.70;0.40;;;14.00;99.90;;;;;;5100567;28;20262;-85
2021/12/30 07:13:49;;;;;;;0.40;0.40;;;14.00;99.90;;;;;;5102217;28;20235;-84
2021/12/30 07:16:16;;;;;;;0.95;0.47;;;14.00;99.90;;;;;;5101359;28;20209;-86
2021/12/30 07:18:43;;;;;;;0.50;0.47;;;14.00;99.90;;;;;;5101970;28;20209;-84
2021/12/30 07:21:13;;;;;;;0.60;0.40;;;14.00;99.90;;;;;;5102058;28;20311;-84
2021/12/30 07:23:40;;;;;;;2.63;0.40;;;13.90;99.90;;;;;;5101458;28;20286;-83
2021/12/30 07:26:07;;;;;;;1.02;0.65;;;14.00;99.90;;;;;;5101562;28;20477;-83
2021/12/30 07:28:36;;;;;;;0.50;0.50;;;14.00;99.90;;;;;;5099951;28;20232;-84
2021/12/30 07:31:03;;;;;;;0.40;0.40;;;14.00;99.90;;;;;;5099174;28;20208;-84
2021/12/30 07:33:30;;;;;;;1.20;0.30;;;14.00;99.90;;;;;;5102906;28;20233;-84
2021/12/30 07:35:57;;;;;;;0.40;0.40;;;14.10;99.90;;;;;;5101604;28;20239;-84
2021/12/30 07:38:24;;;;;;;2.00;0.50;;;14.00;99.90;;;;;;5103585;28;20262;-84
2021/12/30 07:40:51;;;;;;;0.40;0.40;;;14.00;99.90;;;;;;5117024;28;20482;-84
2021/12/30 07:43:18;;;;;;;0.80;0.50;;;14.00;99.90;;;;;;5108990;28;20232;-84
2021/12/30 07:45:46;;;;;;;0.55;0.40;;;14.00;99.90;;;;;;5112609;28;20201;-86
2021/12/30 07:48:13;;;;;;;1.38;0.30;;;14.10;99.90;;;;;;5119937;28;20208;-86
2021/12/30 07:50:40;;;;;;;0.60;0.40;;;14.10;99.90;;;;;;5119146;28;20201;-84
2021/12/30 07:53:07;;;;;;;1.85;0.40;;;14.10;99.90;;;;;;5119194;28;20224;-85
2021/12/30 07:55:34;;;;;;;2.25;1.75;;;14.10;99.90;;;;;;5114897;28;20208;-84
2021/12/30 07:58:01;;;;;;;0.85;0.35;;;14.20;99.90;;;;;;5106127;28;20233;-83
2021/12/30 08:00:28;;;;;;;1.60;0.60;;;14.20;99.90;;;;;;5104195;28;20631;-86
2021/12/30 08:02:57;;;;;;;1.50;0.63;;;14.10;99.90;;;;;;5105702;28;20297;-83
2021/12/30 08:05:24;;;;;;;0.70;0.50;;;14.10;99.90;;;;;;5107317;28;20242;-86
2021/12/30 08:07:52;;;;;;;0.70;0.50;;;14.10;99.90;;;;;;5108161;28;20296;-84
2021/12/30 08:10:20;;;;;;;0.30;0.30;;;14.10;99.90;;;;;;5106970;28;20219;-85
2021/12/30 08:12:49;;;;;;;0.50;0.50;;;14.00;99.90;;;;;;5107718;28;20217;-83
2021/12/30 08:15:17;;;;;;;0.40;0.40;;;14.00;99.90;;;;;;5107619;28;20621;-83
2021/12/30 08:17:45;;;;;;;0.60;0.43;;;14.00;99.90;;;;;;5116099;28;20205;-84
2021/12/30 08:20:16;;;;;;;1.15;0.45;;;13.90;99.90;;;;;;5118017;28;20216;-83
2021/12/30 08:22:43;;;;;;;0.55;0.55;;;13.90;99.90;;;;;;5119477;28;20312;-86
2021/12/30 08:25:12;;;;;;;0.45;0.45;;;13.80;99.90;;;;;;5119249;28;20189;-84
2021/12/30 08:27:40;;;;;;;1.98;0.50;;;13.80;99.90;;;;;;5114777;28;20206;-84
2021/12/30 08:30:10;;;;;;;1.38;0.40;;;13.80;99.90;;;;;;5112615;28;20242;-85
2021/12/30 08:32:39;;;;;;;0.50;0.40;;;13.80;99.90;;;;;;5102754;28;20218;-86
2021/12/30 08:35:07;;;;;;;1.10;0.50;;;13.80;99.90;;;;;;5102959;28;20212;-84
2021/12/30 08:37:36;;;;;;;1.38;0.47;;;13.90;99.90;;;;;;5114479;28;20270;-84
2021/12/30 08:40:04;;;;;;;0.75;0.47;;;13.90;99.90;;;;;;5103540;28;20205;-84
2021/12/30 08:42:32;;;;;;;1.70;0.55;;;13.90;99.90;;;;;;5099592;28;20232;-83
2021/12/30 08:45:01;;;;;;;0.95;0.50;;;13.90;99.90;;;;;;5105597;28;20217;-84
2021/12/30 08:47:32;;;;;;;1.10;0.45;;;14.00;99.90;;;;;;5114205;28;20219;-85
2021/12/30 08:49:59;;;;;;;0.38;0.38;;;14.00;99.90;;;;;;5116107;28;20244;-83
2021/12/30 08:52:29;;;;;;;0.80;0.50;;;14.10;99.90;;;;;;5107829;28;20588;-84
2021/12/30 08:55:00;;;;;;;0.80;0.60;;;14.10;99.90;;;;;;5103824;28;20209;-83
2021/12/30 08:57:27;;;;;;;0.77;0.77;;;14.20;99.90;;;;;;5113392;28;20244;-83
2021/12/30 08:59:54;;;;;;;0.57;0.50;;;14.20;99.90;;;;;;5113584;28;20459;-83
2021/12/30 09:02:21;;;;;;;0.40;0.40;;;14.30;99.90;;;;;;5113050;28;20225;-84
2021/12/30 09:04:48;;;;;;;2.85;0.70;;;14.40;99.90;;;;;;5107899;28;20326;-84
2021/12/30 09:07:18;;;;;;;0.40;0.40;;;14.50;99.90;;;;;;5109755;28;20202;-84
2021/12/30 09:09:46;;;;;;;0.60;0.60;;;14.60;99.90;;;;;;5110278;28;20465;-85
2021/12/30 09:12:14;;;;;;;0.83;0.67;;;14.70;99.90;;;;;;5109505;28;20451;-81
2021/12/30 09:14:41;;;;;;;2.20;0.70;;;14.70;99.90;;;;;;5115161;22;20542;-80
2021/12/30 09:17:09;;;;;;;1.37;0.80;;;14.90;99.20;;;;;;5083415;28;20469;-82
2021/12/30 09:19:37;;;;;;;0.43;0.43;;;14.90;97.50;;;;;;5082471;28;20463;-78
2021/12/30 09:22:04;;;;;;;1.37;1.27;;;15.00;96.90;;;;;;5082561;28;20506;-78
2021/12/30 09:24:31;;;;;;;0.47;0.47;;;15.00;95.80;;;;;;5098619;28;20475;-80
2021/12/30 09:26:58;;;;;;;1.07;0.60;;;15.10;95.20;;;;;;5107035;28;20454;-82
2021/12/30 09:29:27;;;;;;;0.73;0.40;;;15.10;94.90;;;;;;5111850;28;20486;-83
2021/12/30 09:31:54;;;;;;;0.60;0.50;;;15.10;94.60;;;;;;5115238;28;20455;-81
2021/12/30 09:34:21;;;;;;;0.43;0.43;;;15.20;94.30;;;;;;5101689;28;20471;-80
2021/12/30 09:36:48;;;;;;;0.97;0.60;;;15.20;93.40;;;;;;5106076;28;20494;-81
2021/12/30 09:39:16;;;;;;;1.63;0.80;;;15.20;93.10;;;;;;5105453;28;20498;-80
2021/12/30 09:41:47;;;;;;;0.50;0.43;;;15.20;93.30;;;;;;5098941;28;20633;-79
2021/12/30 09:44:16;;;;;;;0.90;0.63;;;15.20;92.90;;;;;;5098068;28;20527;-80
2021/12/30 09:46:45;;;;;;;0.50;0.50;;;15.30;93.20;;;;;;5098436;28;20545;-80
2021/12/30 09:49:17;;;;;;;0.50;0.50;;;15.30;92.70;;;;;;5097624;28;20462;-80
2021/12/30 09:51:45;;;;;;;5.13;0.97;;;15.30;92.90;;;;;;5097714;28;20513;-80
2021/12/30 09:54:13;;;;;;;1.23;0.80;;;15.30;92.50;;;;;;5097151;28;20454;-80
2021/12/30 09:56:41;;;;;;;1.00;0.70;;;15.30;92.20;;;;;;5099075;28;20460;-79
2021/12/30 09:59:09;;;;;;;1.33;0.70;;;15.20;92.10;;;;;;5098842;28;20566;-79
2021/12/30 10:01:38;;;;;;;0.70;0.53;;;15.30;92.10;;;;;;5098329;28;20829;-81
2021/12/30 10:04:08;;;;;;;0.83;0.80;;;15.30;92.10;;;;;;5098281;28;20499;-80
2021/12/30 10:06:41;;;;;;;0.90;0.50;;;15.40;91.70;;;;;;5109426;28;20414;-80
2021/12/30 10:09:12;;;;;;;0.40;0.40;;;15.40;91.60;;;;;;5117339;28;20444;-81
2021/12/30 10:11:47;;;;;;;0.53;0.53;;;15.40;91.70;;;;;;5117249;28;20456;-81
2021/12/30 10:14:27;;;;;;;1.03;0.60;;;15.40;91.60;;;;;;5099221;28;20829;-79
2021/12/30 10:17:15;;;;;;;2.40;0.40;;;15.30;91.90;;;;;;5097118;28;20451;-80
2021/12/30 10:19:44;;;;;;;0.40;0.40;;;15.40;91.70;;;;;;5097362;28;20459;-80
2021/12/30 10:22:12;;;;;;;2.67;0.40;;;15.40;91.60;;;;;;5098293;28;20465;-80
2021/12/30 10:24:39;;;;;;;0.47;0.40;;;15.40;91.30;;;;;;5098344;28;20842;-80
2021/12/30 10:27:07;;;;;;;0.30;0.30;;;15.50;91.30;;;;;;5102857;28;20508;-81
2021/12/30 10:29:41;;;;;;;0.40;0.40;;;15.60;90.70;;;;;;5097614;28;20469;-81
2021/12/30 10:32:15;;;;;;;0.60;0.40;;;15.60;90.80;;;;;;5099685;28;20492;-79
2021/12/30 10:35:09;;;;;;;4.10;0.80;;;15.60;90.10;;;;;;5096614;28;20859;-79
2021/12/30 10:37:37;;;;;;;0.63;0.40;;;15.60;90.20;;;;;;5098308;28;20453;-83
2021/12/30 10:40:05;;;;;;;2.20;0.50;;;15.60;90.30;;;;;;5100323;28;21047;-81
2021/12/30 10:42:33;;;;;;;1.70;0.57;;;15.60;90.00;;;;;;5098577;28;20480;-81
2021/12/30 10:45:04;;;;;;;0.73;0.50;;;15.60;90.20;;;;;;5098546;28;20476;-82
2021/12/30 10:47:33;;;;;;;0.40;0.40;;;15.70;90.40;;;;;;5098608;28;20459;-83
2021/12/30 10:50:03;;;;;;;0.70;0.50;;;15.80;88.90;;;;;;5105630;28;20402;-83
2021/12/30 10:52:32;;;;;;;0.50;0.50;;;15.80;87.80;;;;;;5114307;28;20431;-84
2021/12/30 10:55:00;;;;;;;0.47;0.47;;;15.90;88.10;;;;;;5104032;28;20471;-80
2021/12/30 10:57:29;;;;;;;0.40;0.40;;;15.90;86.70;;;;;;5104359;28;20455;-80
2021/12/30 10:59:57;;;;;;;0.40;0.40;;;15.90;87.20;;;;;;5106959;28;20438;-80
2021/12/30 11:02:26;;;;;;;0.53;0.53;;;15.80;86.60;;;;;;5101015;28;20449;-81
2021/12/30 11:04:56;;;;;;;1.17;0.63;;;15.80;87.20;;;;;;5097035;28;20461;-82
2021/12/30 11:07:25;;;;;;;3.90;0.80;;;15.90;86.10;;;;;;5098478;28;20466;-81
2021/12/30 11:09:56;;;;;;;0.60;0.60;;;15.90;85.90;;;;;;5102102;28;20469;-79
2021/12/30 11:12:25;;;;;;;1.23;0.90;;;15.90;85.00;;;;;;5099259;28;20542;-80
2021/12/30 11:14:52;;;;;;;1.60;0.77;;;15.90;84.80;;;;;;5101768;28;20509;-80
2021/12/30 11:17:23;;;;;;;1.87;0.80;;;15.90;84.20;;;;;;5107618;28;20471;-82
2021/12/30 11:19:52;;;;;;;1.00;0.70;;;15.90;84.50;;;;;;5111752;28;20453;-80
2021/12/30 11:22:21;;;;;;;0.70;0.70;;;15.90;84.20;;;;;;5113872;28;20559;-83
2021/12/30 11:24:49;;;;;;;0.63;0.63;;;16.00;83.90;;;;;;5115972;28;20483;-83
2021/12/30 11:27:18;;;;;;;0.50;0.50;;;15.90;83.40;;;;;;5114742;28;20455;-81
2021/12/30 11:29:47;;;;;;;1.60;0.50;;;15.90;83.40;;;;;;5115622;28;20447;-83
2021/12/30 11:32:16;;;;;;;0.50;0.50;;;15.90;83.40;;;;;;5115529;28;20450;-86
2021/12/30 11:34:43;;;;;;;0.40;0.40;;;15.90;83.50;;;;;;5113881;28;20481;-81
2021/12/30 11:37:10;;;;;;;0.60;0.60;;;15.90;83.30;;;;;;5115288;28;20442;-82
2021/12/30 11:39:42;;;;;;;0.93;0.40;;;15.90;83.70;;;;;;5112177;28;20453;-79
2021/12/30 11:42:13;;;;;;;1.13;0.90;;;15.90;83.50;;;;;;5109862;28;20473;-81
2021/12/30 11:44:47;;;;;;;1.47;0.67;;;15.90;83.70;;;;;;5103555;28;20458;-80
2021/12/30 11:47:41;;;;;;;0.80;0.80;;;15.90;83.20;;;;;;5102308;28;20592;-80
2021/12/30 11:50:14;;;;;;;0.60;0.60;;;15.90;83.60;;;;;;5104542;28;20462;-84
2021/12/30 11:53:01;;;;;;;0.50;0.40;;;15.90;83.50;;;;;;5112480;28;20439;-83
2021/12/30 11:55:57;;;;;;;0.40;0.40;;;15.80;85.00;;;;;;5112613;28;20887;-82
2021/12/30 11:58:46;;;;;;;0.63;0.60;;;15.80;84.80;;;;;;5112121;28;20417;-84
2021/12/30 12:01:45;;;;;;;0.60;0.60;;;15.70;86.40;;;;;;5116159;28;20435;-84
2021/12/30 12:04:15;;;;;;;0.87;0.70;;;15.60;89.00;;;;;;5111846;28;20446;-82
2021/12/30 12:06:49;;;;;;;0.67;0.67;;;15.50;90.30;;;;;;5113495;28;20427;-86
2021/12/30 12:09:36;;;;;;;0.90;0.90;;;15.40;91.10;;;;;;5110075;28;20443;-81
2021/12/30 12:12:06;;;;;;;0.93;0.93;;;15.40;91.40;;;;;;5098389;28;20558;-80
2021/12/30 12:14:36;;;;;;;0.70;0.70;;;15.30;91.60;;;;;;5098355;28;20453;-80
2021/12/30 12:17:06;;;;;;;0.60;0.60;;;15.40;91.20;;;;;;5102161;28;20474;-80
2021/12/30 12:19:36;;;;;;;1.10;0.70;;;15.40;90.70;;;;;;5110332;28;20464;-84
2021/12/30 12:22:05;;;;;;;3.00;1.20;;;15.40;90.70;;;;;;5107593;28;20526;-83
2021/12/30 12:24:36;;;;;;;0.60;0.60;;;15.40;90.60;;;;;;5112236;28;20506;-84
2021/12/30 12:27:06;;;;;;;4.20;0.90;;;15.40;90.40;;;;;;5109343;28;20447;-81
2021/12/30 12:29:37;;;;;;;1.03;0.80;;;15.40;90.20;;;;;;5104594;28;20825;-80
2021/12/30 12:32:10;;;;;;;0.80;0.80;;;15.40;90.40;;;;;;5108976;28;20486;-83
2021/12/30 12:34:43;;;;;;;0.70;0.70;;;15.40;90.10;;;;;;5113516;28;20483;-82
2021/12/30 12:37:48;;;;;;;1.03;0.80;;;15.40;90.10;;;;;;5105751;28;20426;-80
2021/12/30 12:40:28;;;;;;;1.17;0.63;;;15.40;90.70;;;;;;5118758;28;20441;-84
2021/12/30 12:43:07;;;;;;;1.03;0.73;;;15.30;91.00;;;;;;5117372;28;20491;-83
2021/12/30 12:45:36;;;;;;;2.43;0.63;;;15.30;91.00;;;;;;5117067;28;20454;-82
2021/12/30 12:48:39;;;;;;;0.60;0.60;;;15.30;91.30;;;;;;5112319;28;20453;-81
2021/12/30 12:51:16;;;;;;;0.80;0.80;;;15.30;91.60;;;;;;5105441;28;20533;-83
2021/12/30 12:53:48;;;;;;;0.80;0.60;;;15.20;93.00;;;;;;5108708;28;20477;-81
2021/12/30 12:56:21;;;;;;;1.03;0.90;;;15.10;94.60;;;;;;5106716;28;20661;-80
2021/12/30 12:58:51;;;;;;;2.37;0.60;;;15.00;96.50;;;;;;5104838;28;20450;-80